KAFO/AFO METAR and TAF weather

Enter ICAO airport designator
Station Type Date Time Source
KAFO METAR 2023/02/05 22:50 UTC NOAA

KAFO 052250Z AUTO 22005KT 10SM -SN SCT018 BKN047 OVC075 00/M04 A2987 RMK AO2


Station Type Date Time Source
KAFO Decoded METAR 2023/02/05 22:50 UTC NOAA

Station name not available
Feb 05, 2023 - 05:50 PM EST / 2023.02.05 2250 UTC
Wind: from the SW (220 degrees) at 6 MPH (5 KT):0
Visibility: 10 mile(s):0
Sky conditions: overcast
Weather: light snow
Temperature: 32 F (0 C)
Windchill: 26 F (-3 C):1
Dew Point: 24 F (-4 C)
Relative Humidity: 74%
Pressure (altimeter): 29.87 in. Hg (1011 hPa)
ob: KAFO 052250Z AUTO 22005KT 10SM -SN SCT018 BKN047 OVC075 00/M04 A2987 RMK AO2
cycle: 23

Station Type Date Time Source
KAFO TAF UTC NOAA

Error!

Example: see airport list